sensor_id;sensor_type;location;lat;lon;timestamp;pressure;altitude;pressure_sealevel;temperature;humidity
40117;BME280;25829;50.228;18.936;2024-02-26T00:01:13;97585.91;;;3.22;68.12
40117;BME280;25829;50.228;18.936;2024-02-26T00:04:14;97584.47;;;3.19;68.25
40117;BME280;25829;50.228;18.936;2024-02-26T00:07:15;97582.00;;;3.18;68.16
40117;BME280;25829;50.228;18.936;2024-02-26T00:10:15;97583.72;;;3.11;68.44
40117;BME280;25829;50.228;18.936;2024-02-26T00:13:16;97584.28;;;3.06;68.29
40117;BME280;25829;50.228;18.936;2024-02-26T00:16:17;97586.63;;;3.01;68.08
40117;BME280;25829;50.228;18.936;2024-02-26T00:19:21;97586.34;;;2.96;68.51
40117;BME280;25829;50.228;18.936;2024-02-26T00:22:22;97579.81;;;2.85;68.15
40117;BME280;25829;50.228;18.936;2024-02-26T00:25:25;97585.63;;;2.72;68.40
40117;BME280;25829;50.228;18.936;2024-02-26T00:28:31;97591.94;;;2.63;68.94
40117;BME280;25829;50.228;18.936;2024-02-26T00:31:31;97585.91;;;2.63;69.21
40117;BME280;25829;50.228;18.936;2024-02-26T00:34:32;97591.56;;;2.66;69.26
40117;BME280;25829;50.228;18.936;2024-02-26T00:37:33;97588.97;;;2.66;69.32
40117;BME280;25829;50.228;18.936;2024-02-26T00:40:46;97593.97;;;2.68;69.41
40117;BME280;25829;50.228;18.936;2024-02-26T00:43:47;97593.97;;;2.68;69.39
40117;BME280;25829;50.228;18.936;2024-02-26T00:47:21;97591.38;;;2.68;69.12
40117;BME280;25829;50.228;18.936;2024-02-26T00:50:21;97589.13;;;2.65;69.41
40117;BME280;25829;50.228;18.936;2024-02-26T00:53:22;97597.75;;;2.65;69.70
40117;BME280;25829;50.228;18.936;2024-02-26T00:56:35;97600.00;;;2.68;69.03
40117;BME280;25829;50.228;18.936;2024-02-26T00:59:36;97590.56;;;2.67;69.54
40117;BME280;25829;50.228;18.936;2024-02-26T01:02:36;97598.84;;;2.71;69.27
40117;BME280;25829;50.228;18.936;2024-02-26T01:05:38;97596.88;;;2.73;69.63
40117;BME280;25829;50.228;18.936;2024-02-26T01:08:39;97595.06;;;2.73;69.24
40117;BME280;25829;50.228;18.936;2024-02-26T01:11:40;97590.22;;;2.70;69.19
40117;BME280;25829;50.228;18.936;2024-02-26T01:14:41;97585.47;;;2.59;69.12
40117;BME280;25829;50.228;18.936;2024-02-26T01:17:41;97589.47;;;2.47;69.47
40117;BME280;25829;50.228;18.936;2024-02-26T01:20:42;97590.34;;;2.39;70.06
40117;BME280;25829;50.228;18.936;2024-02-26T01:23:43;97590.28;;;2.47;70.09
40117;BME280;25829;50.228;18.936;2024-02-26T01:59:19;97577.41;;;2.31;70.66
40117;BME280;25829;50.228;18.936;2024-02-26T02:02:20;97575.63;;;2.32;70.73
40117;BME280;25829;50.228;18.936;2024-02-26T02:05:21;97577.25;;;2.33;70.88
40117;BME280;25829;50.228;18.936;2024-02-26T02:08:23;97578.69;;;2.35;70.43
40117;BME280;25829;50.228;18.936;2024-02-26T02:11:24;97585.03;;;2.33;70.21
40117;BME280;25829;50.228;18.936;2024-02-26T02:27:56;97583.63;;;2.07;71.03
40117;BME280;25829;50.228;18.936;2024-02-26T02:30:57;97583.47;;;2.09;71.05
40117;BME280;25829;50.228;18.936;2024-02-26T02:33:58;97583.34;;;2.02;70.90
40117;BME280;25829;50.228;18.936;2024-02-26T02:36:59;97573.13;;;2.00;71.12
40117;BME280;25829;50.228;18.936;2024-02-26T02:39:59;97570.97;;;2.04;71.22
40117;BME280;25829;50.228;18.936;2024-02-26T02:43:00;97572.13;;;2.01;70.96
40117;BME280;25829;50.228;18.936;2024-02-26T02:46:02;97569.69;;;2.00;70.74
40117;BME280;25829;50.228;18.936;2024-02-26T02:49:03;97574.91;;;2.00;70.80
40117;BME280;25829;50.228;18.936;2024-02-26T02:52:04;97572.47;;;1.98;71.03
40117;BME280;25829;50.228;18.936;2024-02-26T02:55:04;97572.47;;;1.98;70.85
40117;BME280;25829;50.228;18.936;2024-02-26T02:58:05;97568.28;;;1.97;70.89
40117;BME280;25829;50.228;18.936;2024-02-26T03:01:06;97565.66;;;1.97;70.93
40117;BME280;25829;50.228;18.936;2024-02-26T03:04:07;97560.47;;;1.97;71.41
40117;BME280;25829;50.228;18.936;2024-02-26T03:07:08;97558.03;;;1.96;70.96
40117;BME280;25829;50.228;18.936;2024-02-26T03:10:09;97563.06;;;1.97;70.86
40117;BME280;25829;50.228;18.936;2024-02-26T03:13:10;97557.06;;;1.97;70.85
40117;BME280;25829;50.228;18.936;2024-02-26T03:16:10;97563.91;;;1.90;70.55
40117;BME280;25829;50.228;18.936;2024-02-26T03:19:14;97558.09;;;1.88;70.82
40117;BME280;25829;50.228;18.936;2024-02-26T03:22:15;97563.06;;;1.74;70.65
40117;BME280;25829;50.228;18.936;2024-02-26T03:25:16;97557.41;;;1.71;70.77
40117;BME280;25829;50.228;18.936;2024-02-26T03:28:17;97554.16;;;1.69;70.68
40117;BME280;25829;50.228;18.936;2024-02-26T03:31:18;97558.09;;;1.65;71.38
40117;BME280;25829;50.228;18.936;2024-02-26T03:34:18;97556.13;;;1.67;71.66
40117;BME280;25829;50.228;18.936;2024-02-26T03:37:20;97553.00;;;1.71;71.18
40117;BME280;25829;50.228;18.936;2024-02-26T03:40:21;97555.59;;;1.71;71.07
40117;BME280;25829;50.228;18.936;2024-02-26T03:43:21;97547.00;;;1.71;71.07
40117;BME280;25829;50.228;18.936;2024-02-26T03:46:22;97545.19;;;1.71;71.21
40117;BME280;25829;50.228;18.936;2024-02-26T03:49:23;97541.16;;;1.69;71.12
40117;BME280;25829;50.228;18.936;2024-02-26T03:52:24;97538.56;;;1.69;70.86
40117;BME280;25829;50.228;18.936;2024-02-26T03:55:24;97539.38;;;1.69;71.24
40117;BME280;25829;50.228;18.936;2024-02-26T03:58:25;97541.16;;;1.69;71.38
40117;BME280;25829;50.228;18.936;2024-02-26T04:01:26;97535.94;;;1.69;71.17
40117;BME280;25829;50.228;18.936;2024-02-26T04:04:27;97534.34;;;1.68;71.32
40117;BME280;25829;50.228;18.936;2024-02-26T04:07:28;97531.13;;;1.66;70.66
40117;BME280;25829;50.228;18.936;2024-02-26T04:10:29;97533.41;;;1.61;71.36
40117;BME280;25829;50.228;18.936;2024-02-26T04:30:42;97516.84;;;1.39;72.00
40117;BME280;25829;50.228;18.936;2024-02-26T04:33:43;97520.59;;;1.36;71.90
40117;BME280;25829;50.228;18.936;2024-02-26T04:36:44;97513.13;;;1.33;72.20
40117;BME280;25829;50.228;18.936;2024-02-26T04:39:45;97520.47;;;1.29;72.20
40117;BME280;25829;50.228;18.936;2024-02-26T04:42:46;97516.41;;;1.27;72.24
40117;BME280;25829;50.228;18.936;2024-02-26T04:45:46;97509.91;;;1.31;72.21
40117;BME280;25829;50.228;18.936;2024-02-26T04:48:50;97506.31;;;1.32;71.99
40117;BME280;25829;50.228;18.936;2024-02-26T04:51:50;97498.53;;;1.32;72.23
40117;BME280;25829;50.228;18.936;2024-02-26T04:54:51;97506.94;;;1.34;71.78
40117;BME280;25829;50.228;18.936;2024-02-26T04:57:52;97494.13;;;1.33;72.18
40117;BME280;25829;50.228;18.936;2024-02-26T05:00:53;97507.78;;;1.35;72.04
40117;BME280;25829;50.228;18.936;2024-02-26T05:03:53;97505.19;;;1.35;71.74
40117;BME280;25829;50.228;18.936;2024-02-26T05:06:55;97507.59;;;1.36;71.84
40117;BME280;25829;50.228;18.936;2024-02-26T05:09:56;97512.59;;;1.38;71.95
40117;BME280;25829;50.228;18.936;2024-02-26T05:12:57;97513.59;;;1.37;71.79
40117;BME280;25829;50.228;18.936;2024-02-26T05:15:58;97513.78;;;1.35;71.82
40117;BME280;25829;50.228;18.936;2024-02-26T05:18:59;97513.94;;;1.34;71.49
40117;BME280;25829;50.228;18.936;2024-02-26T05:22:00;97511.53;;;1.32;71.76
40117;BME280;25829;50.228;18.936;2024-02-26T05:25:00;97516.88;;;1.30;71.44
40117;BME280;25829;50.228;18.936;2024-02-26T05:28:01;97520.00;;;1.26;71.18
40117;BME280;25829;50.228;18.936;2024-02-26T05:31:02;97524.72;;;1.22;71.40
40117;BME280;25829;50.228;18.936;2024-02-26T05:34:03;97535.44;;;1.19;71.56
40117;BME280;25829;50.228;18.936;2024-02-26T05:37:04;97523.44;;;1.18;71.43
40117;BME280;25829;50.228;18.936;2024-02-26T05:40:06;97517.44;;;1.18;71.39
40117;BME280;25829;50.228;18.936;2024-02-26T05:43:06;97527.03;;;1.17;71.14
40117;BME280;25829;50.228;18.936;2024-02-26T05:46:07;97522.97;;;1.15;71.55
40117;BME280;25829;50.228;18.936;2024-02-26T05:49:08;97540.38;;;1.14;71.35
40117;BME280;25829;50.228;18.936;2024-02-26T05:52:09;97530.59;;;1.16;71.67
40117;BME280;25829;50.228;18.936;2024-02-26T05:55:10;97532.38;;;1.16;71.62
40117;BME280;25829;50.228;18.936;2024-02-26T05:58:11;97541.63;;;1.18;71.69
40117;BME280;25829;50.228;18.936;2024-02-26T06:01:12;97540.19;;;1.16;71.62
40117;BME280;25829;50.228;18.936;2024-02-26T06:04:12;97537.59;;;1.16;71.85
40117;BME280;25829;50.228;18.936;2024-02-26T06:07:13;97545.56;;;1.14;71.52
40117;BME280;25829;50.228;18.936;2024-02-26T06:10:14;97552.38;;;1.15;72.20
40117;BME280;25829;50.228;18.936;2024-02-26T06:13:14;97544.22;;;1.18;71.34
40117;BME280;25829;50.228;18.936;2024-02-26T06:16:15;97548.75;;;1.24;71.76
40117;BME280;25829;50.228;18.936;2024-02-26T06:19:16;97554.56;;;1.26;72.01
40117;BME280;25829;50.228;18.936;2024-02-26T06:22:17;97557.81;;;1.28;72.03
40117;BME280;25829;50.228;18.936;2024-02-26T06:25:17;97565.28;;;1.31;71.51
40117;BME280;25829;50.228;18.936;2024-02-26T06:28:18;97557.31;;;1.33;71.76
40117;BME280;25829;50.228;18.936;2024-02-26T06:31:19;97555.63;;;1.40;72.25
40117;BME280;25829;50.228;18.936;2024-02-26T06:34:22;97559.34;;;1.46;72.27
40117;BME280;25829;50.228;18.936;2024-02-26T06:37:22;97561.44;;;1.50;72.02
40117;BME280;25829;50.228;18.936;2024-02-26T06:40:23;97562.53;;;1.56;72.23
40117;BME280;25829;50.228;18.936;2024-02-26T06:43:24;97558.44;;;1.62;72.70
40117;BME280;25829;50.228;18.936;2024-02-26T06:46:25;97561.78;;;1.70;72.43
40117;BME280;25829;50.228;18.936;2024-02-26T06:49:27;97559.13;;;1.78;72.21
40117;BME280;25829;50.228;18.936;2024-02-26T06:52:28;97566.69;;;1.88;72.07
40117;BME280;25829;50.228;18.936;2024-02-26T06:55:29;97558.66;;;1.98;72.09
40117;BME280;25829;50.228;18.936;2024-02-26T06:58:29;97562.66;;;2.09;72.46
40117;BME280;25829;50.228;18.936;2024-02-26T07:01:30;97565.97;;;2.17;71.92
40117;BME280;25829;50.228;18.936;2024-02-26T07:04:31;97560.88;;;2.24;72.46
40117;BME280;25829;50.228;18.936;2024-02-26T07:07:34;97563.88;;;2.36;72.54
40117;BME280;25829;50.228;18.936;2024-02-26T07:10:35;97559.03;;;2.47;72.91
40117;BME280;25829;50.228;18.936;2024-02-26T07:13:35;97559.22;;;2.61;72.96
40117;BME280;25829;50.228;18.936;2024-02-26T07:16:36;97556.00;;;2.73;72.95
40117;BME280;25829;50.228;18.936;2024-02-26T07:19:37;97566.59;;;2.87;73.25
40117;BME280;25829;50.228;18.936;2024-02-26T07:22:38;97567.75;;;2.99;73.53
40117;BME280;25829;50.228;18.936;2024-02-26T07:25:38;97565.31;;;3.12;73.50
40117;BME280;25829;50.228;18.936;2024-02-26T07:28:40;97569.50;;;3.28;73.49
40117;BME280;25829;50.228;18.936;2024-02-26T07:31:41;97558.44;;;3.41;73.63
40117;BME280;25829;50.228;18.936;2024-02-26T07:34:41;97558.84;;;3.59;73.25
40117;BME280;25829;50.228;18.936;2024-02-26T07:37:48;97557.03;;;3.75;73.07
40117;BME280;25829;50.228;18.936;2024-02-26T07:40:49;97552.00;;;3.95;73.09
40117;BME280;25829;50.228;18.936;2024-02-26T07:43:50;97554.75;;;4.14;73.50
40117;BME280;25829;50.228;18.936;2024-02-26T07:46:50;97556.50;;;4.35;72.59
40117;BME280;25829;50.228;18.936;2024-02-26T07:49:51;97559.69;;;4.59;72.58
40117;BME280;25829;50.228;18.936;2024-02-26T08:01:51;97560.31;;;5.44;70.97
40117;BME280;25829;50.228;18.936;2024-02-26T08:04:52;97561.59;;;5.68;70.93
40117;BME280;25829;50.228;18.936;2024-02-26T08:07:52;97560.44;;;5.90;70.49
40117;BME280;25829;50.228;18.936;2024-02-26T08:10:55;97558.66;;;6.11;69.79
40117;BME280;25829;50.228;18.936;2024-02-26T08:13:56;97555.03;;;6.31;69.46
40117;BME280;25829;50.228;18.936;2024-02-26T08:16:56;97561.84;;;6.52;69.47
40117;BME280;25829;50.228;18.936;2024-02-26T08:19:57;97564.88;;;6.69;68.91
40117;BME280;25829;50.228;18.936;2024-02-26T08:22:58;97569.47;;;6.87;68.57
40117;BME280;25829;50.228;18.936;2024-02-26T08:25:59;97559.72;;;7.08;68.29
40117;BME280;25829;50.228;18.936;2024-02-26T08:28:59;97561.91;;;7.24;68.03
40117;BME280;25829;50.228;18.936;2024-02-26T08:32:00;97565.25;;;7.38;67.55
40117;BME280;25829;50.228;18.936;2024-02-26T08:35:01;97569.03;;;7.55;66.82
40117;BME280;25829;50.228;18.936;2024-02-26T08:38:02;97563.91;;;7.67;66.46
40117;BME280;25829;50.228;18.936;2024-02-26T08:41:04;97554.94;;;7.81;66.12
40117;BME280;25829;50.228;18.936;2024-02-26T08:44:04;97554.69;;;7.96;65.41
40117;BME280;25829;50.228;18.936;2024-02-26T08:47:08;97562.63;;;8.14;65.17
40117;BME280;25829;50.228;18.936;2024-02-26T08:50:08;97553.81;;;8.27;64.97
40117;BME280;25829;50.228;18.936;2024-02-26T08:53:10;97554.06;;;8.44;64.53
40117;BME280;25829;50.228;18.936;2024-02-26T08:56:11;97550.28;;;8.58;64.15
40117;BME280;25829;50.228;18.936;2024-02-26T08:59:17;97559.31;;;8.69;63.58
40117;BME280;25829;50.228;18.936;2024-02-26T09:02:22;97558.00;;;8.78;63.51
40117;BME280;25829;50.228;18.936;2024-02-26T09:05:23;97561.16;;;8.87;63.11
40117;BME280;25829;50.228;18.936;2024-02-26T09:08:24;97561.47;;;8.97;62.99
40117;BME280;25829;50.228;18.936;2024-02-26T09:11:25;97554.59;;;9.14;62.81
40117;BME280;25829;50.228;18.936;2024-02-26T09:14:25;97555.81;;;9.30;62.25
40117;BME280;25829;50.228;18.936;2024-02-26T09:17:26;97550.03;;;9.40;61.71
40117;BME280;25829;50.228;18.936;2024-02-26T09:20:27;97554.56;;;9.51;61.74
40117;BME280;25829;50.228;18.936;2024-02-26T09:23:28;97547.53;;;9.63;61.33
40117;BME280;25829;50.228;18.936;2024-02-26T09:26:28;97552.72;;;9.82;60.63
40117;BME280;25829;50.228;18.936;2024-02-26T09:29:29;97553.34;;;9.96;58.93
40117;BME280;25829;50.228;18.936;2024-02-26T09:32:32;97551.31;;;10.09;58.46
40117;BME280;25829;50.228;18.936;2024-02-26T09:35:33;97553.97;;;10.21;58.37
40117;BME280;25829;50.228;18.936;2024-02-26T09:38:34;97547.09;;;10.32;58.80
40117;BME280;25829;50.228;18.936;2024-02-26T09:41:38;97558.25;;;10.46;58.56
40117;BME280;25829;50.228;18.936;2024-02-26T09:44:50;97554.91;;;10.62;57.93
40117;BME280;25829;50.228;18.936;2024-02-26T09:47:55;97553.19;;;10.68;57.13
40117;BME280;25829;50.228;18.936;2024-02-26T09:50:56;97551.47;;;10.73;57.69
40117;BME280;25829;50.228;18.936;2024-02-26T09:54:00;97553.88;;;10.87;57.86
40117;BME280;25829;50.228;18.936;2024-02-26T09:57:03;97555.13;;;10.96;57.25
40117;BME280;25829;50.228;18.936;2024-02-26T10:00:10;97560.38;;;11.07;57.27
40117;BME280;25829;50.228;18.936;2024-02-26T10:03:13;97551.00;;;11.12;56.80
40117;BME280;25829;50.228;18.936;2024-02-26T10:06:16;97548.91;;;11.14;56.68
40117;BME280;25829;50.228;18.936;2024-02-26T10:09:25;97543.28;;;11.22;56.42
40117;BME280;25829;50.228;18.936;2024-02-26T10:12:28;97544.16;;;11.27;57.01
40117;BME280;25829;50.228;18.936;2024-02-26T10:15:29;97547.00;;;11.38;57.25
40117;BME280;25829;50.228;18.936;2024-02-26T10:18:52;97545.81;;;11.45;56.05
40117;BME280;25829;50.228;18.936;2024-02-26T10:21:57;97545.13;;;11.50;56.43
40117;BME280;25829;50.228;18.936;2024-02-26T10:25:00;97546.59;;;11.58;56.46
40117;BME280;25829;50.228;18.936;2024-02-26T10:28:01;97545.41;;;11.65;55.72
40117;BME280;25829;50.228;18.936;2024-02-26T10:31:03;97539.72;;;11.73;55.57
40117;BME280;25829;50.228;18.936;2024-02-26T10:34:35;97533.81;;;11.83;54.90
40117;BME280;25829;50.228;18.936;2024-02-26T10:37:54;97539.75;;;11.90;55.35
40117;BME280;25829;50.228;18.936;2024-02-26T10:48:04;97530.59;;;12.27;54.51
40117;BME280;25829;50.228;18.936;2024-02-26T10:51:05;97531.78;;;12.36;54.73
40117;BME280;25829;50.228;18.936;2024-02-26T10:54:06;97536.91;;;12.42;55.17
40117;BME280;25829;50.228;18.936;2024-02-26T10:57:08;97536.22;;;12.47;55.43
40117;BME280;25829;50.228;18.936;2024-02-26T11:00:10;97531.22;;;12.51;55.41
40117;BME280;25829;50.228;18.936;2024-02-26T11:03:15;97530.34;;;12.45;52.16
40117;BME280;25829;50.228;18.936;2024-02-26T11:06:21;97531.25;;;12.34;53.08
40117;BME280;25829;50.228;18.936;2024-02-26T11:09:23;97531.41;;;12.27;53.24
40117;BME280;25829;50.228;18.936;2024-02-26T11:12:24;97524.53;;;12.26;54.30
40117;BME280;25829;50.228;18.936;2024-02-26T11:15:25;97526.91;;;12.28;53.58
40117;BME280;25829;50.228;18.936;2024-02-26T11:18:27;97529.56;;;12.28;54.36
40117;BME280;25829;50.228;18.936;2024-02-26T11:21:28;97533.56;;;12.30;54.42
40117;BME280;25829;50.228;18.936;2024-02-26T11:24:38;97520.09;;;12.32;54.75
40117;BME280;25829;50.228;18.936;2024-02-26T11:27:49;97520.97;;;12.37;53.87
40117;BME280;25829;50.228;18.936;2024-02-26T11:30:54;97518.19;;;12.44;55.00
40117;BME280;25829;50.228;18.936;2024-02-26T11:46:52;97521.91;;;12.65;54.99
40117;BME280;25829;50.228;18.936;2024-02-26T11:49:53;97513.47;;;12.68;54.71
40117;BME280;25829;50.228;18.936;2024-02-26T11:53:19;97521.25;;;12.75;54.17
40117;BME280;25829;50.228;18.936;2024-02-26T11:56:21;97521.78;;;12.77;53.75
40117;BME280;25829;50.228;18.936;2024-02-26T11:59:39;97511.19;;;12.77;52.65
40117;BME280;25829;50.228;18.936;2024-02-26T12:05:46;97505.06;;;12.71;53.42
40117;BME280;25829;50.228;18.936;2024-02-26T12:08:47;97512.25;;;12.76;54.19
40117;BME280;25829;50.228;18.936;2024-02-26T12:20:10;97504.34;;;12.59;53.03
40117;BME280;25829;50.228;18.936;2024-02-26T12:23:15;97506.63;;;12.50;53.50
40117;BME280;25829;50.228;18.936;2024-02-26T12:26:17;97505.44;;;12.41;54.33
40117;BME280;25829;50.228;18.936;2024-02-26T12:29:18;97502.22;;;12.39;54.35
40117;BME280;25829;50.228;18.936;2024-02-26T12:32:19;97502.78;;;12.41;54.93
40117;BME280;25829;50.228;18.936;2024-02-26T12:35:20;97508.88;;;12.41;53.93
40117;BME280;25829;50.228;18.936;2024-02-26T12:38:20;97514.09;;;12.36;55.10
40117;BME280;25829;50.228;18.936;2024-02-26T12:41:29;97518.09;;;12.39;55.12
40117;BME280;25829;50.228;18.936;2024-02-26T12:44:31;97513.78;;;12.33;55.28
40117;BME280;25829;50.228;18.936;2024-02-26T12:47:31;97510.56;;;12.31;55.07
40117;BME280;25829;50.228;18.936;2024-02-26T12:50:32;97515.06;;;12.30;55.13
40117;BME280;25829;50.228;18.936;2024-02-26T12:53:35;97512.63;;;12.29;55.39
40117;BME280;25829;50.228;18.936;2024-02-26T12:56:39;97517.94;;;12.29;55.52
40117;BME280;25829;50.228;18.936;2024-02-26T12:59:40;97515.28;;;12.29;55.69
40117;BME280;25829;50.228;18.936;2024-02-26T13:20:40;97516.66;;;12.14;55.83
40117;BME280;25829;50.228;18.936;2024-02-26T13:23:41;97521.00;;;12.20;55.79
40117;BME280;25829;50.228;18.936;2024-02-26T13:26:42;97515.44;;;12.22;55.65
40117;BME280;25829;50.228;18.936;2024-02-26T13:29:43;97516.03;;;12.24;55.71
40117;BME280;25829;50.228;18.936;2024-02-26T13:32:44;97515.06;;;12.30;55.84
40117;BME280;25829;50.228;18.936;2024-02-26T13:35:47;97512.41;;;12.30;55.56
40117;BME280;25829;50.228;18.936;2024-02-26T13:38:55;97516.19;;;12.34;55.55
40117;BME280;25829;50.228;18.936;2024-02-26T13:41:56;97510.88;;;12.34;55.71
40117;BME280;25829;50.228;18.936;2024-02-26T13:44:57;97516.19;;;12.34;55.60
40117;BME280;25829;50.228;18.936;2024-02-26T13:48:02;97516.50;;;12.38;55.20
40117;BME280;25829;50.228;18.936;2024-02-26T13:51:03;97512.78;;;12.39;55.51
40117;BME280;25829;50.228;18.936;2024-02-26T13:54:05;97510.94;;;12.39;55.19
40117;BME280;25829;50.228;18.936;2024-02-26T13:57:06;97507.03;;;12.42;54.82
40117;BME280;25829;50.228;18.936;2024-02-26T14:00:08;97514.16;;;12.41;54.71
40117;BME280;25829;50.228;18.936;2024-02-26T14:03:12;97520.25;;;12.42;55.44
40117;BME280;25829;50.228;18.936;2024-02-26T14:06:13;97516.31;;;12.44;55.39
40117;BME280;25829;50.228;18.936;2024-02-26T14:09:13;97511.84;;;12.45;55.40
40117;BME280;25829;50.228;18.936;2024-02-26T14:12:25;97517.44;;;12.48;55.18
40117;BME280;25829;50.228;18.936;2024-02-26T14:15:28;97514.78;;;12.48;55.59
40117;BME280;25829;50.228;18.936;2024-02-26T14:18:30;97518.50;;;12.47;55.19
40117;BME280;25829;50.228;18.936;2024-02-26T14:21:30;97510.25;;;12.44;55.45
40117;BME280;25829;50.228;18.936;2024-02-26T14:24:31;97518.19;;;12.44;55.98
40117;BME280;25829;50.228;18.936;2024-02-26T14:27:33;97522.19;;;12.46;55.77
40117;BME280;25829;50.228;18.936;2024-02-26T14:30:34;97525.63;;;12.47;56.00
40117;BME280;25829;50.228;18.936;2024-02-26T14:33:37;97519.53;;;12.46;55.94
40117;BME280;25829;50.228;18.936;2024-02-26T14:36:38;97519.03;;;12.49;56.05
40117;BME280;25829;50.228;18.936;2024-02-26T14:39:39;97528.03;;;12.48;56.03
40117;BME280;25829;50.228;18.936;2024-02-26T14:42:40;97526.91;;;12.44;56.11
40117;BME280;25829;50.228;18.936;2024-02-26T14:45:41;97527.97;;;12.43;56.09
40117;BME280;25829;50.228;18.936;2024-02-26T14:48:43;97518.41;;;12.42;56.51
40117;BME280;25829;50.228;18.936;2024-02-26T14:51:47;97528.97;;;12.42;56.36
40117;BME280;25829;50.228;18.936;2024-02-26T14:55:12;97521.53;;;12.39;56.22
40117;BME280;25829;50.228;18.936;2024-02-26T14:58:16;97522.56;;;12.38;56.73
40117;BME280;25829;50.228;18.936;2024-02-26T15:01:33;97527.88;;;12.38;56.65
40117;BME280;25829;50.228;18.936;2024-02-26T15:04:33;97523.63;;;12.37;56.89
40117;BME280;25829;50.228;18.936;2024-02-26T15:07:35;97519.88;;;12.33;56.81
40117;BME280;25829;50.228;18.936;2024-02-26T15:10:38;97515.84;;;12.31;57.15
40117;BME280;25829;50.228;18.936;2024-02-26T15:13:39;97514.47;;;12.28;57.30
40117;BME280;25829;50.228;18.936;2024-02-26T15:16:40;97517.13;;;12.28;57.31
40117;BME280;25829;50.228;18.936;2024-02-26T15:19:41;97513.69;;;12.28;57.24
40117;BME280;25829;50.228;18.936;2024-02-26T15:22:41;97520.03;;;12.27;57.37
40117;BME280;25829;50.228;18.936;2024-02-26T15:25:42;97526.69;;;12.29;57.45
40117;BME280;25829;50.228;18.936;2024-02-26T15:28:43;97526.13;;;12.27;57.12
40117;BME280;25829;50.228;18.936;2024-02-26T15:31:44;97525.88;;;12.29;57.30
40117;BME280;25829;50.228;18.936;2024-02-26T15:34:44;97533.78;;;12.29;57.34
40117;BME280;25829;50.228;18.936;2024-02-26T15:37:45;97531.16;;;12.29;57.53
40117;BME280;25829;50.228;18.936;2024-02-26T15:40:46;97528.50;;;12.29;57.63
40117;BME280;25829;50.228;18.936;2024-02-26T15:43:47;97532.19;;;12.28;57.75
40117;BME280;25829;50.228;18.936;2024-02-26T15:46:48;97530.34;;;12.28;57.87
40117;BME280;25829;50.228;18.936;2024-02-26T15:49:49;97538.28;;;12.28;57.83
40117;BME280;25829;50.228;18.936;2024-02-26T15:52:50;97542.78;;;12.28;57.92
40117;BME280;25829;50.228;18.936;2024-02-26T15:55:51;97537.75;;;12.26;58.04
40117;BME280;25829;50.228;18.936;2024-02-26T15:58:55;97537.97;;;12.24;58.12
40117;BME280;25829;50.228;18.936;2024-02-26T16:01:59;97540.88;;;12.23;57.98
40117;BME280;25829;50.228;18.936;2024-02-26T16:05:00;97542.63;;;12.17;58.25
40117;BME280;25829;50.228;18.936;2024-02-26T16:08:06;97545.50;;;12.16;58.35
40117;BME280;25829;50.228;18.936;2024-02-26T16:11:08;97549.44;;;12.13;58.40
40117;BME280;25829;50.228;18.936;2024-02-26T16:17:44;97558.56;;;12.06;58.43
40117;BME280;25829;50.228;18.936;2024-02-26T16:20:51;97570.88;;;12.00;58.81
40117;BME280;25829;50.228;18.936;2024-02-26T16:23:51;97578.22;;;11.98;58.69
40117;BME280;25829;50.228;18.936;2024-02-26T16:26:52;97569.97;;;11.94;58.89
40117;BME280;25829;50.228;18.936;2024-02-26T16:29:53;97581.03;;;11.91;58.98
40117;BME280;25829;50.228;18.936;2024-02-26T16:32:57;97591.00;;;11.89;58.93
40117;BME280;25829;50.228;18.936;2024-02-26T16:35:57;97588.63;;;11.88;59.30
40117;BME280;25829;50.228;18.936;2024-02-26T16:39:07;97591.25;;;11.88;59.15
40117;BME280;25829;50.228;18.936;2024-02-26T16:42:11;97589.09;;;11.85;59.43
40117;BME280;25829;50.228;18.936;2024-02-26T16:45:15;97596.69;;;11.81;59.66
40117;BME280;25829;50.228;18.936;2024-02-26T16:48:24;97601.19;;;11.81;59.79
40117;BME280;25829;50.228;18.936;2024-02-26T16:51:30;97603.72;;;11.75;59.86
40117;BME280;25829;50.228;18.936;2024-02-26T16:54:31;97604.66;;;11.69;59.88
40117;BME280;25829;50.228;18.936;2024-02-26T16:57:37;97605.69;;;11.68;59.85
40117;BME280;25829;50.228;18.936;2024-02-26T17:00:38;97612.25;;;11.66;59.76
40117;BME280;25829;50.228;18.936;2024-02-26T17:03:39;97615.81;;;11.60;60.04
40117;BME280;25829;50.228;18.936;2024-02-26T17:06:40;97620.31;;;11.59;60.00
40117;BME280;25829;50.228;18.936;2024-02-26T17:09:40;97625.03;;;11.57;60.34
40117;BME280;25829;50.228;18.936;2024-02-26T17:12:41;97637.66;;;11.55;60.03
40117;BME280;25829;50.228;18.936;2024-02-26T17:15:42;97635.47;;;11.52;60.31
40117;BME280;25829;50.228;18.936;2024-02-26T17:18:43;97640.75;;;11.52;60.01
40117;BME280;25829;50.228;18.936;2024-02-26T17:21:44;97645.97;;;11.47;59.99
40117;BME280;25829;50.228;18.936;2024-02-26T17:24:44;97643.19;;;11.42;60.29
40117;BME280;25829;50.228;18.936;2024-02-26T17:27:47;97651.38;;;11.40;60.46
40117;BME280;25829;50.228;18.936;2024-02-26T17:30:48;97644.16;;;11.36;60.29
40117;BME280;25829;50.228;18.936;2024-02-26T17:33:49;97641.97;;;11.33;60.57
40117;BME280;25829;50.228;18.936;2024-02-26T17:36:50;97641.84;;;11.27;60.56
40117;BME280;25829;50.228;18.936;2024-02-26T17:39:51;97636.22;;;11.24;60.31
40117;BME280;25829;50.228;18.936;2024-02-26T17:42:52;97645.91;;;11.18;60.79
40117;BME280;25829;50.228;18.936;2024-02-26T17:45:53;97656.91;;;11.15;60.82
40117;BME280;25829;50.228;18.936;2024-02-26T17:48:54;97659.31;;;11.17;60.55
40117;BME280;25829;50.228;18.936;2024-02-26T17:51:54;97660.34;;;11.16;60.70
40117;BME280;25829;50.228;18.936;2024-02-26T17:54:55;97670.13;;;11.15;61.17
40117;BME280;25829;50.228;18.936;2024-02-26T17:57:56;97671.13;;;11.14;61.09
40117;BME280;25829;50.228;18.936;2024-02-26T18:00:57;97673.22;;;11.12;60.86
40117;BME280;25829;50.228;18.936;2024-02-26T18:03:57;97674.13;;;11.06;61.03